»·PEaware :: AAL141 KLAX-KSFO

AAL141 :: KLAX-KSFO

FLIGHT INFORMATION

Flight Status: Arrived
Operator:
American Airlines
More flights by this operator :: More flights under this callsign
Pilot: Ryan C. (15122)
Aircraft: EMBRAER EMB-170/175
(E170)
More flights by this aircraft type
Origin: KLAX Los Angeles Intl
United States
Destination: KSFO San Francisco Intl
United States
More flights between these airports :: More routes between these airports
Route: +FIXIT5 RZS SERFR SERFR3
File this flight plan on PilotEdge
Remarks:
Altitude:
(Current/Filed)
32,000ft
Speed:
(Current/Filed)
300kts
Departed: 24-Apr-18 05:36 PM
Arrived: 24-Apr-18 06:32 PM
Distance/Time
Traveled:
293nm/0:56
Distance/Time
To Go:
Arrived

Flight Plot

Page will automatically refresh every two minutes.

Flight plan parsing failed; only flown route is shown


Map Options




Map Legend


Flown Route
Filed Route
Departure Airport
Arrival Airport
Navaid (VOR, NDB)
Fix

Horizontal Profiles

Position Reports

Time Latitude Longitude Heading Altitude Ground
Speed
24-Apr-18 17:07 33.941069 -118.407292 68 122ft 0kts
24-Apr-18 17:13 33.940136 -118.407434 72 124ft 0kts
24-Apr-18 17:14 33.940136 -118.407434 72 124ft 0kts
24-Apr-18 17:15 33.940136 -118.407434 72 124ft 0kts
24-Apr-18 17:16 33.940136 -118.407434 72 124ft 0kts
24-Apr-18 17:17 33.940136 -118.407434 72 124ft 0kts
24-Apr-18 17:18 33.940136 -118.407434 72 124ft 0kts
24-Apr-18 17:19 33.940136 -118.407434 72 124ft 0kts
24-Apr-18 17:20 33.940136 -118.407434 72 124ft 0kts
24-Apr-18 17:21 33.940136 -118.407434 72 124ft 0kts
24-Apr-18 17:22 33.940136 -118.407434 72 124ft 0kts
24-Apr-18 17:23 33.940138 -118.407430 72 124ft 0kts
24-Apr-18 17:24 33.940152 -118.407893 114 124ft 2kts
24-Apr-18 17:25 33.940611 -118.408285 174 124ft 1kts
24-Apr-18 17:26 33.940629 -118.408287 174 124ft 0kts
24-Apr-18 17:27 33.940171 -118.408220 173 125ft 5kts
24-Apr-18 17:28 33.939790 -118.408173 175 126ft 0kts
24-Apr-18 17:29 33.938136 -118.406991 111 126ft 13kts
24-Apr-18 17:30 33.938787 -118.399977 83 116ft 23kts
24-Apr-18 17:31 33.939548 -118.392486 83 106ft 23kts
24-Apr-18 17:32 33.940340 -118.384706 84 102ft 23kts
24-Apr-18 17:33 33.940704 -118.380689 107 99ft 0kts
24-Apr-18 17:34 33.940535 -118.380369 134 99ft 12kts
24-Apr-18 17:35 33.937808 -118.400204 261 965ft 149kts
24-Apr-18 17:36 33.932175 -118.454596 263 3569ft 203kts
24-Apr-18 17:37 33.926431 -118.523739 263 4992ft 211kts
24-Apr-18 17:38 33.919715 -118.604579 264 7140ft 272kts
24-Apr-18 17:39 33.916950 -118.694532 268 9581ft 282kts
24-Apr-18 17:40 33.915557 -118.790170 268 12073ft 294kts
24-Apr-18 17:41 33.927216 -118.886003 294 14572ft 305kts
24-Apr-18 17:42 33.975622 -118.970338 306 17049ft 321kts
24-Apr-18 17:43 34.032339 -119.054957 306 19535ft 337kts
24-Apr-18 17:44 34.089492 -119.139982 306 21941ft 349kts
24-Apr-18 17:45 34.149148 -119.228923 306 24349ft 361kts
24-Apr-18 17:46 34.208613 -119.317802 305 26670ft 372kts
24-Apr-18 17:47 34.273819 -119.415515 305 29136ft 385kts
24-Apr-18 17:48 34.329848 -119.499692 305 31191ft 396kts
24-Apr-18 17:49 34.401995 -119.608451 305 32091ft 459kts
24-Apr-18 17:50 34.480375 -119.726828 305 32083ft 460kts
24-Apr-18 17:51 34.571943 -119.832998 316 32076ft 466kts
24-Apr-18 17:52 34.667982 -119.929269 317 32065ft 466kts
24-Apr-18 17:53 34.770856 -120.032472 317 32056ft 467kts
24-Apr-18 17:54 34.869825 -120.132080 317 32071ft 466kts
24-Apr-18 17:55 34.963478 -120.226642 317 32088ft 465kts
24-Apr-18 17:56 35.060852 -120.325262 317 32091ft 464kts
24-Apr-18 17:57 35.156340 -120.422274 317 32084ft 463kts
24-Apr-18 17:58 35.254280 -120.522097 317 32079ft 464kts
24-Apr-18 17:59 35.353195 -120.623248 317 32078ft 464kts
24-Apr-18 18:00 35.450938 -120.723535 316 32056ft 464kts
24-Apr-18 18:01 35.549421 -120.824908 316 32028ft 464kts
24-Apr-18 18:02 35.648244 -120.926972 316 32028ft 464kts
24-Apr-18 18:03 35.747070 -121.029366 316 32028ft 467kts
24-Apr-18 18:04 35.846526 -121.132786 316 31164ft 468kts
24-Apr-18 18:05 35.945366 -121.235919 316 29668ft 460kts
24-Apr-18 18:06 36.039121 -121.334066 316 28003ft 438kts
24-Apr-18 18:07 36.134417 -121.416021 325 26067ft 427kts
24-Apr-18 18:08 36.233090 -121.493242 325 24522ft 418kts
24-Apr-18 18:09 36.329945 -121.569117 325 23008ft 409kts
24-Apr-18 18:10 36.424605 -121.643490 326 21498ft 399kts
24-Apr-18 18:11 36.516821 -121.716172 325 20106ft 389kts
24-Apr-18 18:12 36.607180 -121.787629 325 18592ft 382kts
24-Apr-18 18:13 36.643463 -121.901774 278 17102ft 363kts
24-Apr-18 18:14 36.722305 -121.952519 25 15606ft 362kts
24-Apr-18 18:15 36.814232 -121.919534 354 14510ft 358kts
24-Apr-18 18:16 36.910041 -121.941492 347 13227ft 350kts
24-Apr-18 18:17 37.000807 -121.972234 342 11839ft 326kts
24-Apr-18 18:18 37.083659 -122.004416 341 10329ft 300kts
24-Apr-18 18:19 37.155613 -122.032547 340 8864ft 279kts
24-Apr-18 18:20 37.227976 -122.060911 340 7970ft 273kts
24-Apr-18 18:21 37.299464 -122.088997 340 7078ft 266kts
24-Apr-18 18:22 37.367949 -122.116005 340 5961ft 260kts
24-Apr-18 18:23 37.432053 -122.138309 342 4014ft 216kts
24-Apr-18 18:24 37.484426 -122.156286 342 3052ft 166kts
24-Apr-18 18:25 37.529187 -122.173544 317 3033ft 167kts
24-Apr-18 18:26 37.553119 -122.221249 298 2794ft 142kts
24-Apr-18 18:27 37.571045 -122.261435 298 1824ft 129kts
24-Apr-18 18:28 37.586920 -122.299125 298 1100ft 119kts
24-Apr-18 18:29 37.601994 -122.335182 296 443ft 113kts
24-Apr-18 18:30 37.615772 -122.368091 297 11ft 56kts
24-Apr-18 18:31 37.618955 -122.378035 268 27ft 0kts
24-Apr-18 18:32 37.618031 -122.379805 243 30ft 9kts
24-Apr-18 18:33 37.617759 -122.380810 252 30ft 0kts
24-Apr-18 18:34 37.617759 -122.380810 252 30ft 0kts
24-Apr-18 18:35 37.617759 -122.380810 252 30ft 0kts
24-Apr-18 18:36 37.617759 -122.380810 252 30ft 0kts
24-Apr-18 18:37 37.617759 -122.380810 252 30ft 0kts
24-Apr-18 18:38 37.617759 -122.380810 252 30ft 0kts
24-Apr-18 18:39 37.617759 -122.380810 252 30ft 0kts
24-Apr-18 18:40 37.617759 -122.380810 252 30ft 0kts
24-Apr-18 18:41 37.617759 -122.380810 252 30ft 0kts
24-Apr-18 18:42 37.617759 -122.380810 252 30ft 0kts
24-Apr-18 18:43 37.617759 -122.380810 252 30ft 0kts
24-Apr-18 18:44 37.617759 -122.380810 252 30ft 0kts
24-Apr-18 18:45 37.617759 -122.380810 252 30ft 0kts

Navigation Log

Ident Type
Flight plan parsing failed, navigation log unavailable